Time;durP1;ratioP1;P1;durP2;ratioP2;P2;SDS_P1;SDS_P2;PMS_P1;PMS_P2;Temp;Humidity;BMP_temperature;BMP_pressure;BME280_temperature;BME280_humidity;BME280_pressure;Samples;Min_cycle;Max_cycle;Signal;HPM_P1;HPM_P2
2021/07/08 00:01:08;;;;;;;8.30;3.40;;;24.10;99.90;;;;;;5011972;28;20056;-70
2021/07/08 00:04:14;;;;;;;6.72;3.65;;;24.10;99.90;;;;;;5012429;28;20060;-70
2021/07/08 00:07:18;;;;;;;7.72;3.95;;;24.10;99.90;;;;;;5012508;28;20045;-70
2021/07/08 00:10:30;;;;;;;8.27;4.25;;;24.00;99.90;;;;;;5011826;28;20044;-70
2021/07/08 00:13:34;;;;;;;9.93;3.90;;;24.10;99.90;;;;;;5012019;28;20045;-70
2021/07/08 00:16:39;;;;;;;8.85;3.60;;;24.10;99.90;;;;;;5012143;28;20392;-70
2021/07/08 00:19:43;;;;;;;7.60;3.80;;;24.10;99.90;;;;;;5012038;28;20503;-70
2021/07/08 00:22:49;;;;;;;5.50;3.70;;;24.10;99.90;;;;;;5011881;28;20056;-70
2021/07/08 00:25:55;;;;;;;9.25;3.72;;;24.10;99.90;;;;;;5012141;28;20064;-70
2021/07/08 00:28:59;;;;;;;6.15;3.40;;;24.10;99.90;;;;;;5011672;28;20078;-70
2021/07/08 00:32:03;;;;;;;6.93;3.75;;;24.10;99.90;;;;;;5011669;28;20049;-70
2021/07/08 00:35:08;;;;;;;8.52;3.60;;;24.10;99.90;;;;;;5011757;28;20041;-70
2021/07/08 00:38:13;;;;;;;8.68;3.80;;;24.00;99.90;;;;;;5011746;28;20033;-70
2021/07/08 00:41:18;;;;;;;7.55;3.40;;;24.10;99.90;;;;;;5011710;28;20416;-69
2021/07/08 00:44:22;;;;;;;5.80;3.60;;;24.10;99.90;;;;;;5011751;28;20053;-70
2021/07/08 00:47:26;;;;;;;8.18;4.07;;;24.10;99.90;;;;;;5022949;28;20052;-70
2021/07/08 00:50:57;;;;;;;7.55;3.72;;;24.10;99.90;;;;;;5030895;28;20511;-69
2021/07/08 00:54:02;;;;;;;8.55;4.13;;;24.10;99.90;;;;;;5031169;28;20040;-69
2021/07/08 00:57:07;;;;;;;9.07;4.32;;;24.00;99.90;;;;;;5031218;28;20045;-70
2021/07/08 01:00:13;;;;;;;7.95;3.47;;;23.90;99.90;;;;;;5031259;28;20064;-70
2021/07/08 01:03:18;;;;;;;7.90;3.28;;;23.80;99.90;;;;;;5031064;28;20072;-70
2021/07/08 01:06:24;;;;;;;5.30;3.50;;;23.80;99.90;;;;;;5031335;28;20053;-70
2021/07/08 01:09:29;;;;;;;6.03;3.53;;;23.80;99.90;;;;;;5030810;28;20044;-70
2021/07/08 01:12:33;;;;;;;7.13;3.65;;;23.90;99.90;;;;;;5030754;28;20045;-70
2021/07/08 01:15:45;;;;;;;6.95;4.03;;;23.90;99.90;;;;;;5030727;28;20057;-69
2021/07/08 01:18:49;;;;;;;9.13;3.97;;;23.90;99.90;;;;;;5030749;28;20051;-70
2021/07/08 01:21:54;;;;;;;8.95;3.92;;;23.80;99.90;;;;;;5040891;28;20056;-70
2021/07/08 01:24:58;;;;;;;8.50;4.15;;;23.70;99.90;;;;;;5030613;28;20048;-69
2021/07/08 01:28:05;;;;;;;10.38;4.00;;;23.60;99.90;;;;;;5030412;28;20503;-69
2021/07/08 01:31:09;;;;;;;9.32;3.65;;;23.50;99.90;;;;;;5030187;28;20048;-69
2021/07/08 01:34:14;;;;;;;6.45;3.47;;;23.40;99.90;;;;;;5030361;28;20056;-69
2021/07/08 01:37:18;;;;;;;5.82;3.75;;;23.40;99.90;;;;;;5030442;28;20041;-70
2021/07/08 01:40:23;;;;;;;5.45;3.45;;;23.40;99.90;;;;;;5030017;28;20503;-70
2021/07/08 01:43:27;;;;;;;8.30;3.88;;;23.40;99.90;;;;;;5030152;28;20060;-70
2021/07/08 01:46:31;;;;;;;7.32;3.85;;;23.40;99.90;;;;;;5030271;28;20392;-70
2021/07/08 01:49:35;;;;;;;7.25;3.08;;;23.40;99.90;;;;;;5030047;28;20048;-70
2021/07/08 01:52:40;;;;;;;6.93;3.60;;;23.40;99.90;;;;;;5030147;28;20397;-70
2021/07/08 01:55:44;;;;;;;8.45;3.92;;;23.40;99.90;;;;;;5030161;28;20040;-70
2021/07/08 01:58:48;;;;;;;7.38;3.30;;;23.30;99.90;;;;;;5029208;28;20045;-70
2021/07/08 02:01:52;;;;;;;3.58;1.60;;;23.30;99.90;;;;;;5029506;28;20499;-69
2021/07/08 02:04:56;;;;;;;4.00;2.45;;;23.40;99.90;;;;;;5029729;28;20395;-69
2021/07/08 02:08:00;;;;;;;4.03;2.20;;;23.40;99.90;;;;;;5030218;28;20396;-69
2021/07/08 02:11:05;;;;;;;4.90;1.50;;;23.40;98.50;;;;;;5029552;28;20052;-70
2021/07/08 02:14:09;;;;;;;4.82;2.80;;;23.70;97.10;;;;;;5029567;28;20048;-70
2021/07/08 02:17:14;;;;;;;6.78;3.40;;;23.20;99.90;;;;;;5029437;28;20044;-69
2021/07/08 02:20:18;;;;;;;13.07;3.60;;;23.00;99.90;;;;;;5029540;28;20053;-70
2021/07/08 02:23:23;;;;;;;4.35;3.22;;;22.90;99.90;;;;;;5029727;28;20052;-70
2021/07/08 02:26:27;;;;;;;5.25;3.50;;;22.70;99.90;;;;;;5029956;28;20044;-70
2021/07/08 02:29:31;;;;;;;5.70;3.22;;;22.60;99.90;;;;;;5030001;28;20081;-70
2021/07/08 02:32:36;;;;;;;5.03;3.30;;;22.50;99.90;;;;;;5030411;28;20069;-70
2021/07/08 02:35:40;;;;;;;4.90;3.80;;;22.30;99.90;;;;;;5029956;28;20044;-70
2021/07/08 02:38:44;;;;;;;4.50;3.50;;;22.30;99.90;;;;;;5030380;28;20057;-70
2021/07/08 02:41:48;;;;;;;11.43;4.18;;;22.20;99.90;;;;;;5020677;28;20056;-70
2021/07/08 02:44:52;;;;;;;5.97;4.30;;;22.00;99.90;;;;;;5016855;28;20045;-70
2021/07/08 02:47:58;;;;;;;10.85;4.70;;;21.90;99.90;;;;;;5010076;28;20049;-70
2021/07/08 02:51:02;;;;;;;8.85;4.05;;;21.80;99.90;;;;;;5023121;28;20056;-70
2021/07/08 02:54:06;;;;;;;9.52;4.65;;;21.80;99.90;;;;;;5027349;28;20040;-70
2021/07/08 02:57:10;;;;;;;6.55;4.15;;;21.60;99.90;;;;;;5011225;28;20033;-69
2021/07/08 03:00:17;;;;;;;9.75;4.78;;;21.50;99.90;;;;;;5028298;28;20471;-70
2021/07/08 03:03:21;;;;;;;7.78;4.43;;;21.20;99.90;;;;;;5029401;28;20065;-70
2021/07/08 03:06:25;;;;;;;6.20;3.95;;;21.20;99.90;;;;;;5029381;28;20051;-70
2021/07/08 03:09:29;;;;;;;15.35;4.30;;;21.30;99.90;;;;;;5028234;28;20052;-71
2021/07/08 03:12:33;;;;;;;10.63;4.60;;;21.30;99.90;;;;;;5009743;28;20052;-70
2021/07/08 03:15:38;;;;;;;8.50;4.78;;;21.40;99.90;;;;;;5009433;28;20041;-69
2021/07/08 03:18:42;;;;;;;8.30;4.35;;;21.50;99.90;;;;;;5009633;28;20045;-69
2021/07/08 03:21:45;;;;;;;13.05;4.90;;;21.50;99.90;;;;;;5009237;28;20511;-69
2021/07/08 03:24:50;;;;;;;12.70;4.18;;;21.60;99.90;;;;;;5009655;28;20045;-69
2021/07/08 03:27:56;;;;;;;6.93;4.03;;;21.40;99.90;;;;;;5020858;28;20056;-69
2021/07/08 03:31:01;;;;;;;10.90;4.32;;;21.30;99.90;;;;;;5032446;28;20048;-70
2021/07/08 03:34:05;;;;;;;9.55;4.28;;;21.50;99.90;;;;;;5032733;28;20056;-70
2021/07/08 03:37:08;;;;;;;9.10;4.43;;;21.50;99.90;;;;;;5032068;28;20408;-70
2021/07/08 03:40:15;;;;;;;7.90;3.63;;;21.50;99.90;;;;;;5020532;28;20057;-69
2021/07/08 03:43:19;;;;;;;13.70;3.50;;;21.50;99.90;;;;;;5032587;28;20036;-70
2021/07/08 03:46:23;;;;;;;7.03;4.07;;;21.50;99.90;;;;;;5032380;28;20056;-69
2021/07/08 03:49:27;;;;;;;7.05;3.88;;;21.10;99.90;;;;;;5012941;28;20036;-70
2021/07/08 03:52:31;;;;;;;9.80;4.72;;;20.80;99.90;;;;;;5017450;28;20040;-69
2021/07/08 03:55:35;;;;;;;10.63;4.63;;;20.90;99.90;;;;;;5031072;28;20040;-69
2021/07/08 03:58:40;;;;;;;6.60;4.53;;;20.80;99.90;;;;;;5030818;28;20048;-70
2021/07/08 04:01:45;;;;;;;8.88;4.32;;;20.90;99.90;;;;;;5029722;28;20068;-69
2021/07/08 04:04:48;;;;;;;7.05;4.63;;;20.90;99.90;;;;;;5014959;28;20299;-70
2021/07/08 04:07:53;;;;;;;11.88;4.20;;;20.80;99.90;;;;;;5031197;28;20045;-70
2021/07/08 04:10:57;;;;;;;8.48;4.60;;;20.70;99.90;;;;;;5027943;28;20052;-70
2021/07/08 04:14:01;;;;;;;12.05;4.47;;;20.70;99.90;;;;;;5024131;28;20049;-69
2021/07/08 04:17:05;;;;;;;6.68;4.40;;;20.40;99.90;;;;;;5030723;28;20049;-69
2021/07/08 04:20:12;;;;;;;8.70;4.20;;;20.40;99.90;;;;;;5031534;28;20048;-70
2021/07/08 04:23:16;;;;;;;7.57;4.90;;;20.50;99.90;;;;;;5031816;28;20040;-70
2021/07/08 04:26:20;;;;;;;12.73;4.55;;;20.60;99.90;;;;;;5031465;28;20048;-70
2021/07/08 04:29:25;;;;;;;8.07;4.68;;;20.70;99.90;;;;;;5031687;28;20060;-70
2021/07/08 04:32:30;;;;;;;10.40;4.30;;;20.90;99.90;;;;;;5029119;28;20495;-69
2021/07/08 04:35:41;;;;;;;8.32;4.43;;;21.00;99.90;;;;;;5030398;28;20048;-69
2021/07/08 04:38:49;;;;;;;14.05;4.88;;;21.10;99.90;;;;;;5029855;28;20053;-70
2021/07/08 04:41:52;;;;;;;8.18;4.18;;;21.20;99.90;;;;;;5030211;28;20648;-70
2021/07/08 04:44:56;;;;;;;12.07;4.88;;;21.50;99.90;;;;;;5030502;28;20139;-70
2021/07/08 04:48:03;;;;;;;5.15;3.67;;;21.80;99.90;;;;;;5028839;28;20048;-69
2021/07/08 04:51:07;;;;;;;4.45;3.17;;;22.00;99.90;;;;;;5028958;28;20052;-70
2021/07/08 04:54:11;;;;;;;11.45;3.88;;;22.30;99.90;;;;;;5040921;28;20044;-69
2021/07/08 04:57:18;;;;;;;9.90;3.92;;;22.90;99.90;;;;;;5036426;28;20044;-71
2021/07/08 05:00:23;;;;;;;7.35;3.42;;;23.60;99.90;;;;;;5030114;28;20076;-69
2021/07/08 05:03:27;;;;;;;5.88;3.33;;;23.60;99.90;;;;;;5027119;28;20052;-70
2021/07/08 05:06:31;;;;;;;5.28;2.90;;;24.00;99.90;;;;;;5030944;28;20036;-71
2021/07/08 05:09:36;;;;;;;11.57;3.97;;;24.30;99.90;;;;;;5029357;28;20048;-70
2021/07/08 05:12:41;;;;;;;8.82;3.28;;;25.00;99.90;;;;;;5028042;28;20037;-70
2021/07/08 05:15:45;;;;;;;6.32;3.03;;;26.10;99.90;;;;;;5029264;28;20064;-70
2021/07/08 05:18:50;;;;;;;9.30;2.90;;;26.60;99.90;;;;;;5039501;28;20514;-70
2021/07/08 05:21:55;;;;;;;10.15;2.92;;;26.20;99.90;;;;;;5033104;28;20128;-70
2021/07/08 05:24:59;;;;;;;26.52;4.30;;;25.60;99.90;;;;;;5034221;28;20048;-70
2021/07/08 05:28:04;;;;;;;6.18;2.63;;;24.90;99.90;;;;;;5031258;28;20056;-70
2021/07/08 05:31:08;;;;;;;5.75;3.10;;;24.20;99.90;;;;;;5030242;28;20052;-69
2021/07/08 05:34:12;;;;;;;14.73;3.45;;;23.70;99.90;;;;;;5025710;28;20040;-69
2021/07/08 05:37:17;;;;;;;14.70;4.13;;;23.70;99.90;;;;;;5029498;28;20044;-69
2021/07/08 05:40:21;;;;;;;7.30;4.25;;;23.50;99.90;;;;;;5030648;28;20048;-70
2021/07/08 05:43:25;;;;;;;4.88;3.45;;;23.30;99.90;;;;;;5040302;28;20048;-71
2021/07/08 05:46:29;;;;;;;9.27;3.42;;;23.40;99.90;;;;;;5011068;28;20044;-71
2021/07/08 05:49:34;;;;;;;6.53;3.35;;;23.50;99.90;;;;;;5014381;28;20040;-71
2021/07/08 05:52:39;;;;;;;6.85;3.15;;;23.50;99.90;;;;;;5033372;28;20069;-71
2021/07/08 05:55:43;;;;;;;6.55;3.33;;;23.50;99.90;;;;;;5010336;28;20041;-70
2021/07/08 05:58:47;;;;;;;10.00;3.78;;;23.40;99.90;;;;;;5011329;28;20057;-70
2021/07/08 06:01:51;;;;;;;15.43;4.22;;;22.90;99.90;;;;;;5045353;28;20044;-70
2021/07/08 06:04:56;;;;;;;10.50;3.40;;;22.80;99.90;;;;;;5022070;28;20052;-70
2021/07/08 06:08:01;;;;;;;5.93;3.70;;;22.80;99.90;;;;;;5027426;28;20052;-69
2021/07/08 06:11:06;;;;;;;14.23;3.53;;;22.80;99.90;;;;;;5019929;28;20037;-68
2021/07/08 06:14:10;;;;;;;10.15;3.50;;;22.80;99.90;;;;;;5010457;28;20037;-69
2021/07/08 06:17:15;;;;;;;12.88;4.00;;;22.60;99.90;;;;;;5011493;28;20056;-69
2021/07/08 06:20:19;;;;;;;14.18;3.63;;;22.50;99.90;;;;;;5017342;28;20045;-68
2021/07/08 06:24:57;;;;;;;9.07;3.83;;;22.30;99.90;;;;;;5103409;27;20129;-51
2021/07/08 06:28:01;;;;;;;18.92;4.03;;;22.30;99.90;;;;;;5092349;28;20044;-51
2021/07/08 06:31:06;;;;;;;6.50;3.20;;;22.60;99.90;;;;;;5068363;28;20040;-53
2021/07/08 06:34:10;;;;;;;6.93;3.25;;;23.10;99.90;;;;;;5067568;28;20522;-53
2021/07/08 06:37:16;;;;;;;7.22;2.92;;;23.00;99.90;;;;;;5090546;28;20036;-53
2021/07/08 06:40:20;;;;;;;8.15;3.30;;;23.00;99.90;;;;;;5090342;28;20037;-56
2021/07/08 06:43:24;;;;;;;6.40;3.80;;;23.10;99.90;;;;;;5073303;28;20042;-51
2021/07/08 06:46:29;;;;;;;7.70;4.47;;;23.10;99.90;;;;;;5080085;28;20044;-53
2021/07/08 06:49:36;;;;;;;11.10;5.60;;;22.90;99.90;;;;;;5085654;28;20036;-51
2021/07/08 06:52:41;;;;;;;12.00;5.03;;;22.80;99.90;;;;;;5084657;28;20514;-52
2021/07/08 06:55:45;;;;;;;8.43;4.50;;;22.90;99.90;;;;;;5076015;28;20044;-51
2021/07/08 06:58:50;;;;;;;11.05;4.10;;;23.00;99.90;;;;;;5080942;28;20028;-51
2021/07/08 07:01:54;;;;;;;11.00;4.05;;;23.30;99.90;;;;;;5084814;28;20045;-56
2021/07/08 07:04:58;;;;;;;20.75;5.50;;;23.70;99.90;;;;;;5085568;28;20046;-54
2021/07/08 07:08:03;;;;;;;10.75;4.05;;;24.10;99.90;;;;;;5095013;28;20039;-51
2021/07/08 07:11:07;;;;;;;6.68;3.40;;;24.50;99.90;;;;;;5086839;28;20044;-51
2021/07/08 07:14:11;;;;;;;13.82;3.28;;;25.20;99.90;;;;;;5084539;28;20040;-51
2021/07/08 07:17:15;;;;;;;10.85;3.08;;;26.00;99.90;;;;;;5083964;28;20048;-51
2021/07/08 07:20:20;;;;;;;10.02;3.35;;;26.70;99.90;;;;;;5095013;28;20059;-51
2021/07/08 07:23:24;;;;;;;10.05;3.45;;;27.70;99.90;;;;;;5074624;28;20047;-53
2021/07/08 07:26:28;;;;;;;12.30;2.60;;;28.10;99.00;;;;;;5086215;28;20044;-51
2021/07/08 07:29:32;;;;;;;8.85;2.90;;;28.00;98.40;;;;;;5093748;28;20433;-52
2021/07/08 07:32:36;;;;;;;5.18;2.80;;;27.20;98.70;;;;;;5082640;28;20036;-51
2021/07/08 07:35:40;;;;;;;7.25;3.00;;;27.30;99.00;;;;;;5077101;28;20375;-51
2021/07/08 07:38:44;;;;;;;6.43;2.60;;;27.40;98.60;;;;;;5071240;28;20037;-51
2021/07/08 07:41:49;;;;;;;8.00;2.50;;;27.60;98.10;;;;;;5072159;28;20044;-55
2021/07/08 07:44:53;;;;;;;8.50;2.40;;;28.30;98.00;;;;;;5083474;28;20582;-52
2021/07/08 07:47:57;;;;;;;10.13;2.35;;;30.00;96.50;;;;;;5054637;28;20033;-51
2021/07/08 07:51:01;;;;;;;6.25;2.30;;;32.00;92.60;;;;;;5056108;28;20040;-55
2021/07/08 07:54:05;;;;;;;4.65;2.00;;;33.90;89.70;;;;;;5088645;28;20049;-53
2021/07/08 07:57:09;;;;;;;7.50;1.80;;;35.40;85.00;;;;;;5080134;28;20521;-50
2021/07/08 08:00:13;;;;;;;12.32;1.92;;;37.00;80.30;;;;;;5069898;28;20044;-49
2021/07/08 08:03:18;;;;;;;7.82;1.60;;;37.80;77.50;;;;;;5079747;28;20040;-56
2021/07/08 08:09:45;;;;;;;4.47;1.20;;;38.30;74.60;;;;;;5074203;28;20028;-50
2021/07/08 08:12:49;;;;;;;3.88;1.40;;;39.20;73.20;;;;;;5069657;28;20036;-51
2021/07/08 08:15:53;;;;;;;4.93;1.50;;;39.90;71.20;;;;;;5064236;28;20029;-49
2021/07/08 08:18:57;;;;;;;5.85;1.50;;;39.70;69.40;;;;;;5091919;28;20406;-51
2021/07/08 08:22:02;;;;;;;3.45;1.50;;;39.00;71.80;;;;;;5073634;28;20333;-54
2021/07/08 08:25:08;;;;;;;8.93;1.50;;;38.60;70.60;;;;;;5085043;28;20036;-51
2021/07/08 08:28:11;;;;;;;4.45;1.50;;;39.10;70.80;;;;;;5060614;28;20029;-51
2021/07/08 08:31:15;;;;;;;6.20;1.58;;;39.40;68.80;;;;;;5070964;28;20036;-52
2021/07/08 08:34:19;;;;;;;4.25;1.58;;;39.70;68.90;;;;;;5063851;28;20048;-52
2021/07/08 08:37:23;;;;;;;8.82;1.73;;;40.10;67.80;;;;;;5091304;28;20406;-53
2021/07/08 08:40:27;;;;;;;4.25;1.10;;;40.10;67.00;;;;;;5091534;28;20040;-51
2021/07/08 08:43:32;;;;;;;16.40;1.80;;;40.10;67.20;;;;;;5091600;28;20375;-51
2021/07/08 08:46:36;;;;;;;8.23;1.50;;;39.90;66.30;;;;;;5070137;28;20043;-55
2021/07/08 08:49:41;;;;;;;21.40;2.40;;;38.50;67.30;;;;;;5071357;28;20387;-51
2021/07/08 08:52:50;;;;;;;13.30;1.90;;;37.70;68.30;;;;;;5071487;28;20045;-53
2021/07/08 08:55:54;;;;;;;10.07;2.00;;;36.90;70.80;;;;;;5083493;28;20040;-54
2021/07/08 08:58:58;;;;;;;12.25;2.35;;;34.70;70.90;;;;;;5076341;28;20039;-54
2021/07/08 09:02:18;;;;;;;18.08;1.83;;;33.90;75.50;;;;;;5088507;28;20042;-55
2021/07/08 09:05:23;;;;;;;6.80;1.73;;;35.50;73.80;;;;;;5071934;28;20067;-54
2021/07/08 09:08:27;;;;;;;5.30;1.63;;;37.40;72.00;;;;;;5070758;28;20029;-51
2021/07/08 09:11:31;;;;;;;3.97;1.40;;;38.80;69.10;;;;;;5070771;28;20032;-51
2021/07/08 09:14:35;;;;;;;5.85;1.30;;;37.70;68.20;;;;;;5056170;28;20052;-57
2021/07/08 09:17:40;;;;;;;4.10;1.40;;;38.40;66.40;;;;;;5055936;28;20061;-51
2021/07/08 09:20:45;;;;;;;6.88;1.70;;;37.90;68.80;;;;;;5069990;28;20041;-51
2021/07/08 09:24:09;;;;;;;10.07;2.00;;;35.60;70.80;;;;;;5069073;28;20051;-51
2021/07/08 09:27:13;;;;;;;3.28;1.70;;;34.20;73.10;;;;;;5069797;28;20047;-51
2021/07/08 09:30:25;;;;;;;5.47;1.98;;;35.30;72.80;;;;;;5089298;28;20036;-51
2021/07/08 09:33:31;;;;;;;5.80;1.65;;;38.70;68.50;;;;;;5049955;28;20049;-52
2021/07/08 09:36:35;;;;;;;7.50;1.63;;;37.10;69.40;;;;;;5050237;28;20048;-51
2021/07/08 09:39:50;;;;;;;4.15;1.70;;;39.50;67.40;;;;;;5077217;28;20051;-51
2021/07/08 09:42:54;;;;;;;7.28;1.60;;;40.50;66.00;;;;;;5090015;28;20402;-51
2021/07/08 09:45:58;;;;;;;6.25;1.80;;;40.80;64.90;;;;;;5078509;28;20040;-51
2021/07/08 09:49:08;;;;;;;5.68;1.58;;;41.10;65.50;;;;;;5043429;28;20048;-53
2021/07/08 09:52:13;;;;;;;2.00;1.35;;;39.70;65.50;;;;;;5049508;28;20033;-52
2021/07/08 09:55:30;;;;;;;6.07;1.50;;;40.10;65.50;;;;;;5039261;28;20052;-51
2021/07/08 09:58:49;;;;;;;9.07;2.20;;;40.60;64.70;;;;;;5068845;28;20040;-54
2021/07/08 10:01:57;;;;;;;7.25;2.03;;;38.00;65.70;;;;;;5049201;28;20037;-53
2021/07/08 10:05:02;;;;;;;6.35;2.00;;;36.50;69.90;;;;;;5049364;28;20531;-54
2021/07/08 10:08:08;;;;;;;6.60;1.80;;;36.00;71.20;;;;;;5064383;28;20040;-52
2021/07/08 10:11:21;;;;;;;6.57;1.58;;;34.70;74.30;;;;;;5072024;28;20043;-53
2021/07/08 10:14:25;;;;;;;4.03;1.70;;;36.00;71.80;;;;;;5086859;28;20566;-52
2021/07/08 10:17:35;;;;;;;6.32;2.05;;;35.20;72.00;;;;;;5076933;28;20051;-51
2021/07/08 10:20:42;;;;;;;9.50;2.67;;;35.40;72.90;;;;;;5079463;28;20051;-52
2021/07/08 10:23:47;;;;;;;5.38;1.90;;;37.60;69.60;;;;;;5069075;28;20660;-51
2021/07/08 10:26:52;;;;;;;7.13;1.83;;;37.10;68.30;;;;;;5069544;28;20047;-52
2021/07/08 10:29:59;;;;;;;7.75;1.90;;;37.40;68.30;;;;;;5074877;28;20043;-52
2021/07/08 10:33:02;;;;;;;6.53;2.20;;;37.30;69.10;;;;;;5089808;28;20048;-51
2021/07/08 10:36:06;;;;;;;8.50;1.83;;;38.50;65.60;;;;;;5089790;28;20043;-50
2021/07/08 10:39:18;;;;;;;10.93;1.83;;;37.40;65.90;;;;;;5089130;28;20053;-51
2021/07/08 10:42:49;;;;;;;14.57;1.92;;;37.20;65.60;;;;;;5045529;28;20044;-52
2021/07/08 10:46:02;;;;;;;10.57;2.03;;;36.40;67.80;;;;;;5056932;28;20048;-53
2021/07/08 10:49:12;;;;;;;11.35;2.35;;;37.10;65.70;;;;;;5056234;28;20036;-52
2021/07/08 10:52:41;;;;;;;7.90;2.13;;;36.80;65.20;;;;;;5049251;28;20047;-55
2021/07/08 10:55:51;;;;;;;10.88;2.00;;;36.90;67.20;;;;;;5061321;28;20033;-54
2021/07/08 10:58:55;;;;;;;;;;;38.20;63.40;;;;;;5072637;22;20047;-82
2021/07/08 11:01:59;;;;;;;10.30;2.53;;;38.50;63.60;;;;;;5082056;28;19931;-82
2021/07/08 11:05:04;;;;;;;8.10;2.53;;;37.50;64.60;;;;;;5051120;28;20517;-82
2021/07/08 11:08:08;;;;;;;6.70;2.08;;;37.10;65.20;;;;;;5064019;28;20043;-82
2021/07/08 11:11:32;;;;;;;9.60;2.65;;;37.90;64.50;;;;;;5074375;28;20052;-82
2021/07/08 11:14:39;;;;;;;6.93;1.90;;;38.50;64.50;;;;;;5067700;28;20047;-81
2021/07/08 11:17:48;;;;;;;5.97;1.85;;;39.00;63.00;;;;;;5072976;28;20046;-82
2021/07/08 11:20:53;;;;;;;9.85;2.72;;;38.20;63.50;;;;;;5075045;28;20040;-82
2021/07/08 11:24:19;;;;;;;13.52;2.40;;;36.30;64.20;;;;;;5074742;28;20111;-82
2021/07/08 11:27:23;;;;;;;6.32;1.80;;;35.60;67.40;;;;;;5075065;28;20115;-82
2021/07/08 11:30:30;;;;;;;6.15;2.30;;;37.30;65.40;;;;;;5074620;28;20043;-82
2021/07/08 11:33:37;;;;;;;6.50;2.28;;;38.60;63.70;;;;;;5074858;28;20409;-82
2021/07/08 11:36:44;;;;;;;5.75;1.90;;;38.70;63.20;;;;;;5074745;28;20044;-82
2021/07/08 11:39:54;;;;;;;9.45;2.03;;;38.70;64.00;;;;;;5075171;28;20046;-82
2021/07/08 11:43:01;;;;;;;7.40;2.13;;;37.50;65.40;;;;;;5074472;28;20499;-82
2021/07/08 11:46:06;;;;;;;10.20;2.35;;;38.40;63.80;;;;;;5061641;28;20047;-82
2021/07/08 11:49:11;;;;;;;8.57;2.20;;;37.20;65.10;;;;;;5074557;28;20504;-82
2021/07/08 11:52:29;;;;;;;9.13;2.25;;;37.90;64.50;;;;;;5067177;28;20498;-82
2021/07/08 11:55:33;;;;;;;14.43;2.40;;;36.10;66.00;;;;;;5074530;28;20063;-82
2021/07/08 11:58:38;;;;;;;5.57;2.20;;;36.50;66.30;;;;;;5073070;28;20051;-82
2021/07/08 12:01:41;;;;;;;11.10;2.60;;;35.80;66.80;;;;;;5074765;28;20049;-82
2021/07/08 12:04:45;;;;;;;11.38;2.38;;;35.90;65.80;;;;;;5080674;28;20051;-82
2021/07/08 12:08:24;;;;;;;7.35;2.10;;;35.90;66.70;;;;;;5073950;28;20060;-82
2021/07/08 12:11:36;;;;;;;12.70;2.50;;;35.60;67.20;;;;;;5073418;28;20045;-82
2021/07/08 12:14:41;;;;;;;10.63;2.90;;;36.10;67.30;;;;;;5058578;28;20043;-83
2021/07/08 12:17:45;;;;;;;11.32;2.50;;;36.30;67.50;;;;;;5064918;28;20043;-83
2021/07/08 12:20:49;;;;;;;8.32;2.53;;;35.60;66.50;;;;;;5069511;28;20043;-82
2021/07/08 12:24:02;;;;;;;10.68;2.80;;;35.10;67.90;;;;;;5073463;28;20513;-81
2021/07/08 12:27:08;;;;;;;11.20;2.70;;;34.90;67.30;;;;;;5073443;28;20048;-82
2021/07/08 12:30:27;;;;;;;10.10;2.88;;;35.30;68.90;;;;;;5073574;28;20537;-82
2021/07/08 12:33:31;;;;;;;12.20;2.80;;;35.50;67.90;;;;;;5073124;28;20052;-82
2021/07/08 12:36:35;;;;;;;14.65;3.05;;;34.80;69.30;;;;;;5072702;28;20409;-82
2021/07/08 12:39:41;;;;;;;9.98;2.72;;;34.90;68.80;;;;;;5072347;28;20520;-81
2021/07/08 12:42:48;;;;;;;10.48;2.80;;;34.50;69.20;;;;;;5073519;28;20421;-81
2021/07/08 12:45:53;;;;;;;9.88;2.38;;;35.00;70.50;;;;;;5073403;28;20094;-81
2021/07/08 12:48:57;;;;;;;11.52;2.75;;;35.20;68.20;;;;;;5073268;28;20039;-81
2021/07/08 12:52:02;;;;;;;11.02;2.80;;;35.20;69.90;;;;;;5073185;28;20043;-82
2021/07/08 12:55:08;;;;;;;10.18;2.72;;;35.40;70.10;;;;;;5073174;28;20040;-81
2021/07/08 12:58:26;;;;;;;13.25;2.42;;;34.50;69.80;;;;;;5071775;28;20045;-81
2021/07/08 13:01:31;;;;;;;13.32;2.72;;;34.30;69.60;;;;;;5072915;28;20051;-82
2021/07/08 13:04:36;;;;;;;12.07;2.78;;;34.60;69.90;;;;;;5072238;28;20047;-81
2021/07/08 13:07:49;;;;;;;10.63;2.60;;;35.20;70.10;;;;;;5073121;28;20528;-81
2021/07/08 13:10:54;;;;;;;12.23;2.80;;;34.90;70.10;;;;;;5072549;28;20503;-81
2021/07/08 13:14:20;;;;;;;6.57;2.80;;;35.00;71.30;;;;;;5072813;28;20048;-81
2021/07/08 13:17:29;;;;;;;11.52;2.35;;;34.40;72.10;;;;;;5071551;28;20040;-81
2021/07/08 13:20:40;;;;;;;7.18;2.72;;;34.40;71.10;;;;;;5073290;28;20304;-81
2021/07/08 13:23:46;;;;;;;9.68;2.97;;;34.60;71.20;;;;;;5060762;28;20056;-81
2021/07/08 13:26:51;;;;;;;11.80;2.90;;;34.30;71.80;;;;;;5073442;28;20413;-81
2021/07/08 13:29:55;;;;;;;10.05;2.58;;;33.70;73.20;;;;;;5072669;28;20397;-82
2021/07/08 13:33:09;;;;;;;9.93;2.53;;;34.30;73.50;;;;;;5072253;28;20043;-82
2021/07/08 13:36:20;;;;;;;10.43;3.13;;;34.60;71.80;;;;;;5083229;28;20051;-81
2021/07/08 13:39:25;;;;;;;11.70;2.10;;;35.30;70.30;;;;;;5072483;28;20039;-81
2021/07/08 13:42:30;;;;;;;7.45;2.53;;;35.50;71.20;;;;;;5071800;28;20048;-81
2021/07/08 13:45:34;;;;;;;11.05;2.75;;;34.40;69.70;;;;;;5051862;28;20041;-81
2021/07/08 13:48:40;;;;;;;15.93;2.80;;;34.90;70.80;;;;;;5051674;28;20040;-81
2021/07/08 13:51:48;;;;;;;8.70;2.50;;;34.60;68.20;;;;;;5052484;28;20043;-81
2021/07/08 13:54:53;;;;;;;8.30;2.35;;;34.70;68.40;;;;;;5069389;28;20037;-81
2021/07/08 13:57:57;;;;;;;9.68;2.35;;;34.30;69.00;;;;;;5072820;28;20044;-80
2021/07/08 14:01:01;;;;;;;9.48;2.83;;;34.00;70.90;;;;;;5083441;28;20110;-80
2021/07/08 14:04:06;;;;;;;9.20;2.55;;;34.10;69.90;;;;;;5073408;28;20040;-80
2021/07/08 14:07:10;;;;;;;8.93;2.45;;;33.80;70.50;;;;;;5080213;22;20052;-52
2021/07/08 14:10:15;;;;;;;8.90;2.42;;;33.90;70.10;;;;;;5049012;28;20459;-49
2021/07/08 14:13:20;;;;;;;8.40;2.33;;;34.30;70.70;;;;;;5048017;28;20412;-51
2021/07/08 14:16:26;;;;;;;6.57;2.15;;;34.30;70.10;;;;;;5043045;28;20624;-54
2021/07/08 14:19:30;;;;;;;8.43;2.13;;;34.60;69.50;;;;;;5049057;28;20044;-51
2021/07/08 14:22:35;;;;;;;6.57;2.30;;;34.30;70.20;;;;;;5053138;28;20054;-54
2021/07/08 14:25:38;;;;;;;7.32;2.70;;;34.60;69.80;;;;;;5048772;28;20048;-52
2021/07/08 14:28:43;;;;;;;8.95;2.35;;;34.50;71.10;;;;;;5048774;28;20033;-50
2021/07/08 14:31:47;;;;;;;5.32;2.00;;;34.20;70.10;;;;;;5050071;28;20044;-52
2021/07/08 14:34:52;;;;;;;8.63;2.63;;;33.40;71.70;;;;;;5040778;28;20054;-56
2021/07/08 14:37:56;;;;;;;9.60;2.65;;;33.10;71.30;;;;;;5048919;28;20048;-56
2021/07/08 14:41:00;;;;;;;10.35;2.78;;;32.90;72.20;;;;;;5048774;28;20037;-55
2021/07/08 14:44:17;;;;;;;12.35;2.47;;;33.00;73.10;;;;;;5049526;28;20052;-55
2021/07/08 14:47:21;;;;;;;15.25;2.83;;;33.20;72.30;;;;;;5052702;28;20067;-55
2021/07/08 14:50:26;;;;;;;9.07;2.58;;;33.80;72.70;;;;;;5052883;28;20060;-55
2021/07/08 14:53:31;;;;;;;13.25;3.58;;;34.00;73.70;;;;;;5054253;28;20033;-50
2021/07/08 14:56:36;;;;;;;38.97;4.50;;;34.00;73.90;;;;;;5049451;28;20044;-56
2021/07/08 14:59:40;;;;;;;17.40;3.42;;;34.00;74.80;;;;;;5044654;28;20036;-51
2021/07/08 15:02:45;;;;;;;13.65;3.67;;;33.30;76.00;;;;;;5054510;28;20056;-55
2021/07/08 15:05:50;;;;;;;11.68;3.22;;;33.30;75.90;;;;;;5054674;28;20040;-54
2021/07/08 15:08:54;;;;;;;14.68;3.50;;;33.40;77.10;;;;;;5051191;28;20524;-53
2021/07/08 15:12:01;;;;;;;10.73;3.13;;;33.50;76.20;;;;;;5051118;28;20056;-52
2021/07/08 15:15:07;;;;;;;11.90;3.15;;;33.10;75.60;;;;;;5047719;28;20036;-54
2021/07/08 15:18:11;;;;;;;12.38;3.13;;;32.90;75.50;;;;;;5049772;28;20068;-52
2021/07/08 15:21:15;;;;;;;9.23;3.67;;;33.20;75.00;;;;;;5044309;28;20465;-53
2021/07/08 15:24:19;;;;;;;11.90;3.20;;;32.80;76.90;;;;;;5041421;28;20048;-57
2021/07/08 15:27:24;;;;;;;16.23;4.13;;;33.40;76.80;;;;;;5047028;28;20036;-53
2021/07/08 15:30:28;;;;;;;16.92;3.17;;;33.40;77.20;;;;;;5049323;28;20446;-57
2021/07/08 15:33:32;;;;;;;15.15;2.97;;;33.00;78.10;;;;;;5049421;28;20040;-58
2021/07/08 15:36:38;;;;;;;14.13;2.65;;;33.00;75.70;;;;;;5036390;28;20128;-57
2021/07/08 15:39:43;;;;;;;16.73;3.05;;;32.70;72.50;;;;;;5034874;28;20040;-59
2021/07/08 15:42:47;;;;;;;9.18;2.55;;;32.10;71.50;;;;;;5045884;28;20040;-51
2021/07/08 15:45:51;;;;;;;7.88;2.90;;;32.20;71.40;;;;;;5047533;28;20056;-55
2021/07/08 15:48:55;;;;;;;19.15;2.45;;;32.10;71.00;;;;;;5047474;28;20045;-59
2021/07/08 15:51:59;;;;;;;8.43;2.08;;;32.30;71.10;;;;;;5048266;28;20044;-60
2021/07/08 15:55:05;;;;;;;9.45;2.03;;;32.30;71.20;;;;;;5049602;28;20052;-59
2021/07/08 15:58:09;;;;;;;11.75;3.00;;;32.80;71.60;;;;;;5048820;28;20054;-61
2021/07/08 16:01:14;;;;;;;7.32;2.45;;;33.00;70.60;;;;;;5048332;28;20048;-56
2021/07/08 16:04:18;;;;;;;6.97;2.08;;;33.30;70.20;;;;;;5041494;28;20048;-58
2021/07/08 16:07:22;;;;;;;4.13;1.90;;;33.40;71.40;;;;;;5047975;28;20522;-59